WetterOnline ( https://www.wetteronline.de )

Wetter aktuell Riegsee

Aktuelles Wetter: Hohenpeißenberg (986m)

6-stündlich | Neueste Meldungen
Ortszeit Temperatur Wetter
So, 25.10. 13:00 14.4° C leicht bewölkt
So, 25.10. 7:00 8.2° C wolkenlos
So, 25.10. 2:00 7.9° C wolkenlos
Sa, 24.10. 20:00 7.4° C wolkenlos
Sa, 24.10. 14:00 8.4° C Sprühregen
Sa, 24.10. 8:00 8.3° C bedeckt
Sa, 24.10. 2:00 9.0° C leichter Regen
Fr, 23.10. 20:00 12.3° C bedeckt
Ortszeit Temperatur Wetter
So, 25.10. 17:30 10.6° C wolkig
So, 25.10. 17:20 10.6° C wolkig
So, 25.10. 17:10 10.6° C wolkig
So, 25.10. 17:00 10.9° C wolkig
So, 25.10. 16:50 10.9° C wolkig
So, 25.10. 16:40 11.0° C wolkig
So, 25.10. 16:30 11.6° C leicht bewölkt
So, 25.10. 16:00 12.2° C leicht bewölkt
So, 25.10. 15:30 12.7° C wolkenlos
So, 25.10. 15:00 12.8° C fast wolkenlos
So, 25.10. 14:30 12.8° C leicht bewölkt
Ortszeit Relative Feuchte Sichtweite
So, 25.10. 13:00 41% 60 km
So, 25.10. 7:00 70% >70 km
So, 25.10. 2:00 81% >70 km
Sa, 24.10. 20:00 97% 30 km
Sa, 24.10. 14:00 99% 100 m
Sa, 24.10. 8:00 95% >70 km
Sa, 24.10. 2:00 99% 100 m
Fr, 23.10. 20:00 80% 50 km
Ortszeit Relative Feuchte Sichtweite
So, 25.10. 17:30 80% >70 km
So, 25.10. 17:20 80% -
So, 25.10. 17:10 78% -
So, 25.10. 17:00 78% >70 km
So, 25.10. 16:50 78% -
So, 25.10. 16:40 78% -
So, 25.10. 16:30 75% 65 km
So, 25.10. 16:00 72% 65 km
So, 25.10. 15:30 68% 55 km
So, 25.10. 15:00 65% 60 km
So, 25.10. 14:30 66% >70 km
Ortszeit Niederschlagsmenge Niederschlagsart
So, 25.10. 13:00 0.0 l/m2 in 6 Std. -
So, 25.10. 7:00 0.0 l/m2 in 12 Std. -
So, 25.10. 2:00 0.0 l/m2 in 6 Std. -
Sa, 24.10. 20:00 4 l/m2 in 12 Std. Sprühregen
Sa, 24.10. 14:00 4 l/m2 in 6 Std. Regen
Sa, 24.10. 8:00 7 l/m2 in 12 Std. Regen
Sa, 24.10. 2:00 7 l/m2 in 6 Std. Regen
Fr, 23.10. 20:00 0.1 l/m2 in 12 Std. Regen
Ortszeit Niederschlagsmenge Niederschlagsart
So, 25.10. 17:30 0.0 l/m2 in 1 Std. -
So, 25.10. 17:20 keine Meldung -
So, 25.10. 17:10 keine Meldung -
So, 25.10. 17:00 0.0 l/m2 in 1 Std. -
So, 25.10. 16:50 keine Meldung -
So, 25.10. 16:40 keine Meldung -
So, 25.10. 16:30 0.0 l/m2 in 1 Std. -
So, 25.10. 16:00 0.0 l/m2 in 1 Std. -
So, 25.10. 15:30 0.0 l/m2 in 1 Std. -
So, 25.10. 15:00 0.0 l/m2 in 1 Std. -
So, 25.10. 14:30 0.0 l/m2 in 1 Std. -
Ortszeit Stärke Spitze Richtung
km/h Bft. km/h Grad Sektor
So, 25.10. 13:00 7 2 22 110° O
So, 25.10. 7:00 7 2 29 160° S
So, 25.10. 2:00 18 3 22 140° SO
Sa, 24.10. 20:00 11 2 25 200° S
Sa, 24.10. 14:00 9 2 44 240° SW
Sa, 24.10. 8:00 25 4 54 240° SW
Sa, 24.10. 2:00 28 4 44 230° SW
Fr, 23.10. 20:00 13 3 22 280° W
Ortszeit Stärke Spitze Richtung
km/h Bft. km/h Grad Sektor
So, 25.10. 17:30 14 3 18 10° N
So, 25.10. 17:20 14 3 - 10° N
So, 25.10. 17:10 15 3 - 10° N
So, 25.10. 17:00 15 3 19 360° N
So, 25.10. 16:50 15 3 - 360° N
So, 25.10. 16:40 13 3 - 360° N
So, 25.10. 16:30 11 2 14 20° N
So, 25.10. 16:00 7 2 11 20° N
So, 25.10. 15:30 9 2 13 60° NO
So, 25.10. 15:00 7 2 14 20° N
So, 25.10. 14:30 11 2 14 10° N
Ortszeit Untergrenze Bedeckung Gattung
total tief tief mittel hoch
So, 25.10. 13:00 9000 m 6/8 0/8 - - -
So, 25.10. 7:00 - 0/8 0/8 - - -
So, 25.10. 2:00 - 0/8 0/8 - - -
Sa, 24.10. 20:00 - 0/8 0/8 - - -
Sa, 24.10. 14:00 <30 m 7/8 0/8 - - -
Sa, 24.10. 8:00 450 m 8/8 8/8 - - -
Sa, 24.10. 2:00 30 m 8/8 8/8 - - -
Fr, 23.10. 20:00 750 m 8/8 8/8 - - -
Ortszeit Bedeckungsgrad in Achtel und Wolkenuntergrenze
So, 25.10. 17:30 8(7800m) 8(9000m)
So, 25.10. 17:20 8(7800m) 8(9000m)
So, 25.10. 17:10 7(7800m) 7(8700m) 7(9000m)
So, 25.10. 17:00 7(8100m) 8(9000m)
So, 25.10. 16:50 7(8100m) 8(9000m)
So, 25.10. 16:40 5(8100m) 6(8400m) 8(9000m)
So, 25.10. 16:30 1(7500m) 3(8400m) 5(9000m)
So, 25.10. 16:00 4(7200m)
So, 25.10. 15:30 keine Wolken
So, 25.10. 15:00 1(9000m)
So, 25.10. 14:30 6(10500m)
Ortszeit Stationsdruck (hPa) Tendenz (hPa in 3 Std.)
So, 25.10. 13:00 898 - 1,6
So, 25.10. 7:00 900 - 0,8
So, 25.10. 2:00 903 - 2,1
Sa, 24.10. 20:00 905 - 0,2
Sa, 24.10. 14:00 907 + 0,2
Sa, 24.10. 8:00 905 + 0,8
Sa, 24.10. 2:00 904 + 0,2
Fr, 23.10. 20:00 904 + 0,9
Ortszeit Stationsdruck (hPa) Tendenz (hPa in 3 Std.)
So, 25.10. 17:30 897 - 0,5
So, 25.10. 17:20 897 keine Meldung
So, 25.10. 17:10 897 keine Meldung
So, 25.10. 17:00 897 - 0,5
So, 25.10. 16:50 897 keine Meldung
So, 25.10. 16:40 897 keine Meldung
So, 25.10. 16:30 897 - 0,9
So, 25.10. 16:00 897 - 1,0
So, 25.10. 15:30 897 - 1,5
So, 25.10. 15:00 897 - 1,4
So, 25.10. 14:30 897 - 1,6
Ortszeit Schneehöhe (cm)
So, 25.10. 13:00 0
So, 25.10. 7:00 0
So, 25.10. 2:00 0
Sa, 24.10. 20:00 0
Sa, 24.10. 14:00 0
Sa, 24.10. 8:00 0
Sa, 24.10. 2:00 0
Fr, 23.10. 20:00 0
Ortszeit Schneehöhe (cm)
So, 25.10. 17:30 0
So, 25.10. 17:20 0
So, 25.10. 17:10 0
So, 25.10. 17:00 0
So, 25.10. 16:50 0
So, 25.10. 16:40 0
So, 25.10. 16:30 0
So, 25.10. 16:00 0
So, 25.10. 15:30 0
So, 25.10. 15:00 0
So, 25.10. 14:30 0
Link zu dieser Seite / Seite empfehlen

Das Wetter in ...